sensor_id;sensor_type;location;lat;lon;timestamp;P1;durP1;ratioP1;P2;durP2;ratioP2
68718;SDS011;55696;52.138;5.444;2023-02-02T00:00:51;22.00;;;3.00;;
68718;SDS011;55696;52.138;5.444;2023-02-02T00:03:18;19.02;;;3.05;;
68718;SDS011;55696;52.138;5.444;2023-02-02T00:05:50;15.30;;;2.78;;
68718;SDS011;55696;52.138;5.444;2023-02-02T00:08:19;16.05;;;2.88;;
68718;SDS011;55696;52.138;5.444;2023-02-02T00:10:46;22.87;;;3.10;;
68718;SDS011;55696;52.138;5.444;2023-02-02T00:13:13;22.20;;;4.72;;
68718;SDS011;55696;52.138;5.444;2023-02-02T00:15:40;19.00;;;4.55;;
68718;SDS011;55696;52.138;5.444;2023-02-02T00:18:07;20.13;;;3.38;;
68718;SDS011;55696;52.138;5.444;2023-02-02T00:20:33;22.02;;;3.33;;
68718;SDS011;55696;52.138;5.444;2023-02-02T00:23:00;20.43;;;3.87;;
68718;SDS011;55696;52.138;5.444;2023-02-02T00:25:29;18.23;;;4.28;;
68718;SDS011;55696;52.138;5.444;2023-02-02T00:27:56;13.75;;;3.00;;
68718;SDS011;55696;52.138;5.444;2023-02-02T00:30:23;15.68;;;3.13;;
68718;SDS011;55696;52.138;5.444;2023-02-02T00:32:51;24.33;;;3.25;;
68718;SDS011;55696;52.138;5.444;2023-02-02T00:35:18;18.60;;;3.30;;
68718;SDS011;55696;52.138;5.444;2023-02-02T00:37:45;12.73;;;2.85;;
68718;SDS011;55696;52.138;5.444;2023-02-02T00:40:13;15.85;;;3.58;;
68718;SDS011;55696;52.138;5.444;2023-02-02T00:42:40;17.27;;;3.60;;
68718;SDS011;55696;52.138;5.444;2023-02-02T00:45:11;22.00;;;2.60;;
68718;SDS011;55696;52.138;5.444;2023-02-02T00:47:46;13.73;;;2.30;;
68718;SDS011;55696;52.138;5.444;2023-02-02T00:50:15;15.02;;;2.78;;
68718;SDS011;55696;52.138;5.444;2023-02-02T00:52:47;14.93;;;3.15;;
68718;SDS011;55696;52.138;5.444;2023-02-02T00:55:14;9.38;;;2.33;;
68718;SDS011;55696;52.138;5.444;2023-02-02T00:57:42;12.88;;;2.90;;
68718;SDS011;55696;52.138;5.444;2023-02-02T01:00:11;16.93;;;2.63;;
68718;SDS011;55696;52.138;5.444;2023-02-02T01:02:42;16.70;;;2.50;;
68718;SDS011;55696;52.138;5.444;2023-02-02T01:05:10;10.32;;;2.88;;
68718;SDS011;55696;52.138;5.444;2023-02-02T01:07:38;21.75;;;3.97;;
68718;SDS011;55696;52.138;5.444;2023-02-02T01:10:06;21.23;;;3.63;;
68718;SDS011;55696;52.138;5.444;2023-02-02T01:12:36;13.87;;;2.90;;
68718;SDS011;55696;52.138;5.444;2023-02-02T01:15:04;19.13;;;3.35;;
68718;SDS011;55696;52.138;5.444;2023-02-02T01:17:31;24.40;;;3.97;;
68718;SDS011;55696;52.138;5.444;2023-02-02T01:19:59;12.88;;;2.75;;
68718;SDS011;55696;52.138;5.444;2023-02-02T01:22:25;12.05;;;2.58;;
68718;SDS011;55696;52.138;5.444;2023-02-02T01:24:52;7.60;;;2.47;;
68718;SDS011;55696;52.138;5.444;2023-02-02T01:27:20;12.70;;;2.25;;
68718;SDS011;55696;52.138;5.444;2023-02-02T01:29:47;13.65;;;3.67;;
68718;SDS011;55696;52.138;5.444;2023-02-02T01:32:14;9.00;;;2.10;;
68718;SDS011;55696;52.138;5.444;2023-02-02T01:34:40;12.93;;;2.40;;
68718;SDS011;55696;52.138;5.444;2023-02-02T01:37:09;7.23;;;1.47;;
68718;SDS011;55696;52.138;5.444;2023-02-02T01:39:36;8.82;;;1.40;;
68718;SDS011;55696;52.138;5.444;2023-02-02T01:42:05;9.10;;;1.70;;
68718;SDS011;55696;52.138;5.444;2023-02-02T01:47:40;9.70;;;1.80;;
68718;SDS011;55696;52.138;5.444;2023-02-02T01:50:12;7.63;;;1.40;;
68718;SDS011;55696;52.138;5.444;2023-02-02T01:52:41;10.18;;;1.58;;
68718;SDS011;55696;52.138;5.444;2023-02-02T01:55:11;5.47;;;1.60;;
68718;SDS011;55696;52.138;5.444;2023-02-02T01:57:42;5.93;;;1.70;;
68718;SDS011;55696;52.138;5.444;2023-02-02T02:00:11;6.18;;;1.80;;
68718;SDS011;55696;52.138;5.444;2023-02-02T02:02:43;8.00;;;1.43;;
68718;SDS011;55696;52.138;5.444;2023-02-02T02:05:19;10.45;;;1.85;;
68718;SDS011;55696;52.138;5.444;2023-02-02T02:08:17;6.15;;;1.77;;
68718;SDS011;55696;52.138;5.444;2023-02-02T02:11:07;6.25;;;1.90;;
68718;SDS011;55696;52.138;5.444;2023-02-02T02:13:35;5.60;;;2.08;;
68718;SDS011;55696;52.138;5.444;2023-02-02T02:22:05;5.57;;;1.58;;
68718;SDS011;55696;52.138;5.444;2023-02-02T02:25:16;7.63;;;1.63;;
68718;SDS011;55696;52.138;5.444;2023-02-02T02:39:03;7.45;;;2.05;;
68718;SDS011;55696;52.138;5.444;2023-02-02T02:41:37;8.73;;;2.05;;
68718;SDS011;55696;52.138;5.444;2023-02-02T02:44:10;10.77;;;2.13;;
68718;SDS011;55696;52.138;5.444;2023-02-02T02:46:41;18.45;;;3.33;;
68718;SDS011;55696;52.138;5.444;2023-02-02T02:49:10;12.00;;;2.45;;
68718;SDS011;55696;52.138;5.444;2023-02-02T02:54:21;14.25;;;2.33;;
68718;SDS011;55696;52.138;5.444;2023-02-02T03:05:14;15.15;;;2.65;;
68718;SDS011;55696;52.138;5.444;2023-02-02T03:08:03;15.95;;;2.45;;
68718;SDS011;55696;52.138;5.444;2023-02-02T03:10:31;20.43;;;2.73;;
68718;SDS011;55696;52.138;5.444;2023-02-02T03:12:59;16.20;;;2.97;;
68718;SDS011;55696;52.138;5.444;2023-02-02T03:15:27;17.27;;;2.75;;
68718;SDS011;55696;52.138;5.444;2023-02-02T03:17:53;17.25;;;2.70;;
68718;SDS011;55696;52.138;5.444;2023-02-02T03:20:20;14.20;;;3.47;;
68718;SDS011;55696;52.138;5.444;2023-02-02T03:22:47;23.20;;;3.03;;
68718;SDS011;55696;52.138;5.444;2023-02-02T03:25:14;20.85;;;4.95;;
68718;SDS011;55696;52.138;5.444;2023-02-02T03:27:41;21.25;;;2.85;;
68718;SDS011;55696;52.138;5.444;2023-02-02T03:30:09;21.92;;;3.58;;
68718;SDS011;55696;52.138;5.444;2023-02-02T03:32:37;18.00;;;3.33;;
68718;SDS011;55696;52.138;5.444;2023-02-02T03:35:04;14.80;;;3.07;;
68718;SDS011;55696;52.138;5.444;2023-02-02T03:37:32;16.92;;;2.95;;
68718;SDS011;55696;52.138;5.444;2023-02-02T03:39:58;17.75;;;3.03;;
68718;SDS011;55696;52.138;5.444;2023-02-02T03:42:25;23.63;;;3.33;;
68718;SDS011;55696;52.138;5.444;2023-02-02T03:44:52;20.55;;;3.75;;
68718;SDS011;55696;52.138;5.444;2023-02-02T03:47:19;14.97;;;2.87;;
68718;SDS011;55696;52.138;5.444;2023-02-02T03:49:46;16.55;;;2.88;;
68718;SDS011;55696;52.138;5.444;2023-02-02T03:52:12;19.58;;;4.43;;
68718;SDS011;55696;52.138;5.444;2023-02-02T03:54:39;21.75;;;3.00;;
68718;SDS011;55696;52.138;5.444;2023-02-02T03:57:06;22.75;;;3.72;;
68718;SDS011;55696;52.138;5.444;2023-02-02T03:59:33;13.93;;;2.83;;
68718;SDS011;55696;52.138;5.444;2023-02-02T04:01:59;22.92;;;3.45;;
68718;SDS011;55696;52.138;5.444;2023-02-02T04:04:26;21.08;;;3.35;;
68718;SDS011;55696;52.138;5.444;2023-02-02T04:06:53;16.88;;;3.25;;
68718;SDS011;55696;52.138;5.444;2023-02-02T04:09:20;17.63;;;3.30;;
68718;SDS011;55696;52.138;5.444;2023-02-02T04:11:46;14.60;;;2.70;;
68718;SDS011;55696;52.138;5.444;2023-02-02T04:14:13;12.80;;;2.47;;
68718;SDS011;55696;52.138;5.444;2023-02-02T04:16:40;15.68;;;3.50;;
68718;SDS011;55696;52.138;5.444;2023-02-02T04:19:07;24.67;;;3.20;;
68718;SDS011;55696;52.138;5.444;2023-02-02T04:21:34;20.52;;;3.75;;
68718;SDS011;55696;52.138;5.444;2023-02-02T04:24:01;15.77;;;2.40;;
68718;SDS011;55696;52.138;5.444;2023-02-02T04:26:28;11.82;;;2.88;;
68718;SDS011;55696;52.138;5.444;2023-02-02T04:28:54;17.67;;;2.80;;
68718;SDS011;55696;52.138;5.444;2023-02-02T04:31:21;16.23;;;3.67;;
68718;SDS011;55696;52.138;5.444;2023-02-02T04:33:48;16.55;;;2.45;;
68718;SDS011;55696;52.138;5.444;2023-02-02T04:36:15;14.63;;;2.37;;
68718;SDS011;55696;52.138;5.444;2023-02-02T04:38:42;9.65;;;2.80;;
68718;SDS011;55696;52.138;5.444;2023-02-02T04:41:10;14.07;;;2.67;;
68718;SDS011;55696;52.138;5.444;2023-02-02T04:43:39;19.25;;;2.65;;
68718;SDS011;55696;52.138;5.444;2023-02-02T04:46:06;14.98;;;2.72;;
68718;SDS011;55696;52.138;5.444;2023-02-02T04:48:33;15.07;;;2.77;;
68718;SDS011;55696;52.138;5.444;2023-02-02T04:51:00;16.33;;;2.83;;
68718;SDS011;55696;52.138;5.444;2023-02-02T04:53:29;19.35;;;2.22;;
68718;SDS011;55696;52.138;5.444;2023-02-02T04:56:03;12.90;;;2.78;;
68718;SDS011;55696;52.138;5.444;2023-02-02T04:58:31;11.27;;;3.55;;
68718;SDS011;55696;52.138;5.444;2023-02-02T05:00:58;14.23;;;2.93;;
68718;SDS011;55696;52.138;5.444;2023-02-02T05:03:25;16.55;;;2.72;;
68718;SDS011;55696;52.138;5.444;2023-02-02T05:05:59;18.77;;;2.90;;
68718;SDS011;55696;52.138;5.444;2023-02-02T05:08:30;24.17;;;3.30;;
68718;SDS011;55696;52.138;5.444;2023-02-02T05:10:57;17.70;;;3.42;;
68718;SDS011;55696;52.138;5.444;2023-02-02T05:13:24;15.93;;;2.47;;
68718;SDS011;55696;52.138;5.444;2023-02-02T05:15:52;14.98;;;3.10;;
68718;SDS011;55696;52.138;5.444;2023-02-02T05:18:19;13.85;;;2.75;;
68718;SDS011;55696;52.138;5.444;2023-02-02T05:20:47;10.55;;;2.42;;
68718;SDS011;55696;52.138;5.444;2023-02-02T05:23:13;18.92;;;3.70;;
68718;SDS011;55696;52.138;5.444;2023-02-02T05:25:40;18.47;;;2.70;;
68718;SDS011;55696;52.138;5.444;2023-02-02T05:28:07;15.75;;;3.00;;
68718;SDS011;55696;52.138;5.444;2023-02-02T05:30:34;13.48;;;2.85;;
68718;SDS011;55696;52.138;5.444;2023-02-02T05:33:03;22.23;;;3.00;;
68718;SDS011;55696;52.138;5.444;2023-02-02T05:35:30;17.55;;;3.00;;
68718;SDS011;55696;52.138;5.444;2023-02-02T05:37:57;14.27;;;3.20;;
68718;SDS011;55696;52.138;5.444;2023-02-02T05:40:24;25.83;;;3.38;;
68718;SDS011;55696;52.138;5.444;2023-02-02T05:42:51;12.70;;;3.78;;
68718;SDS011;55696;52.138;5.444;2023-02-02T05:45:18;18.35;;;3.10;;
68718;SDS011;55696;52.138;5.444;2023-02-02T05:47:44;10.38;;;2.72;;
68718;SDS011;55696;52.138;5.444;2023-02-02T05:50:11;17.97;;;2.77;;
68718;SDS011;55696;52.138;5.444;2023-02-02T05:52:38;16.80;;;2.50;;
68718;SDS011;55696;52.138;5.444;2023-02-02T05:55:08;9.32;;;2.55;;
68718;SDS011;55696;52.138;5.444;2023-02-02T05:57:35;15.07;;;2.70;;
68718;SDS011;55696;52.138;5.444;2023-02-02T06:00:02;12.60;;;2.50;;
68718;SDS011;55696;52.138;5.444;2023-02-02T06:02:37;13.40;;;2.63;;
68718;SDS011;55696;52.138;5.444;2023-02-02T06:05:04;22.00;;;3.38;;
68718;SDS011;55696;52.138;5.444;2023-02-02T06:07:31;15.88;;;3.20;;
68718;SDS011;55696;52.138;5.444;2023-02-02T06:09:58;14.50;;;2.95;;
68718;SDS011;55696;52.138;5.444;2023-02-02T06:12:25;14.25;;;2.90;;
68718;SDS011;55696;52.138;5.444;2023-02-02T06:14:51;11.03;;;2.40;;
68718;SDS011;55696;52.138;5.444;2023-02-02T06:17:18;17.48;;;3.03;;
68718;SDS011;55696;52.138;5.444;2023-02-02T06:19:45;13.70;;;3.33;;
68718;SDS011;55696;52.138;5.444;2023-02-02T06:22:11;12.85;;;2.90;;
68718;SDS011;55696;52.138;5.444;2023-02-02T06:24:38;19.35;;;3.17;;
68718;SDS011;55696;52.138;5.444;2023-02-02T06:27:05;14.53;;;2.50;;
68718;SDS011;55696;52.138;5.444;2023-02-02T06:29:32;9.75;;;2.10;;
68718;SDS011;55696;52.138;5.444;2023-02-02T06:31:58;20.45;;;3.13;;
68718;SDS011;55696;52.138;5.444;2023-02-02T06:34:25;16.73;;;2.72;;
68718;SDS011;55696;52.138;5.444;2023-02-02T06:36:52;18.90;;;2.65;;
68718;SDS011;55696;52.138;5.444;2023-02-02T06:39:19;11.00;;;2.40;;
68718;SDS011;55696;52.138;5.444;2023-02-02T06:41:45;11.85;;;2.25;;
68718;SDS011;55696;52.138;5.444;2023-02-02T06:44:13;14.52;;;2.50;;
68718;SDS011;55696;52.138;5.444;2023-02-02T06:46:41;15.30;;;2.95;;
68718;SDS011;55696;52.138;5.444;2023-02-02T06:49:07;14.13;;;2.92;;
68718;SDS011;55696;52.138;5.444;2023-02-02T06:51:34;14.13;;;2.70;;
68718;SDS011;55696;52.138;5.444;2023-02-02T06:54:01;10.63;;;2.80;;
68718;SDS011;55696;52.138;5.444;2023-02-02T06:56:29;12.07;;;3.03;;
68718;SDS011;55696;52.138;5.444;2023-02-02T06:58:55;12.27;;;2.55;;
68718;SDS011;55696;52.138;5.444;2023-02-02T07:01:22;11.20;;;2.42;;
68718;SDS011;55696;52.138;5.444;2023-02-02T07:03:49;12.47;;;2.43;;
68718;SDS011;55696;52.138;5.444;2023-02-02T07:06:17;12.80;;;2.55;;
68718;SDS011;55696;52.138;5.444;2023-02-02T07:08:50;16.75;;;3.33;;
68718;SDS011;55696;52.138;5.444;2023-02-02T07:11:28;14.40;;;3.60;;
68718;SDS011;55696;52.138;5.444;2023-02-02T07:13:56;14.70;;;3.30;;
68718;SDS011;55696;52.138;5.444;2023-02-02T07:16:23;20.13;;;2.77;;
68718;SDS011;55696;52.138;5.444;2023-02-02T07:18:50;16.83;;;3.08;;
68718;SDS011;55696;52.138;5.444;2023-02-02T07:21:18;18.05;;;3.28;;
68718;SDS011;55696;52.138;5.444;2023-02-02T07:23:47;12.05;;;2.38;;
68718;SDS011;55696;52.138;5.444;2023-02-02T07:26:14;18.55;;;3.42;;
68718;SDS011;55696;52.138;5.444;2023-02-02T07:28:42;14.83;;;2.97;;
68718;SDS011;55696;52.138;5.444;2023-02-02T07:31:17;14.77;;;3.00;;
68718;SDS011;55696;52.138;5.444;2023-02-02T07:33:45;14.90;;;2.97;;
68718;SDS011;55696;52.138;5.444;2023-02-02T07:36:14;14.55;;;3.35;;
68718;SDS011;55696;52.138;5.444;2023-02-02T07:38:44;13.90;;;3.00;;
68718;SDS011;55696;52.138;5.444;2023-02-02T07:41:11;10.77;;;3.20;;
68718;SDS011;55696;52.138;5.444;2023-02-02T07:43:39;12.30;;;2.90;;
68718;SDS011;55696;52.138;5.444;2023-02-02T07:46:07;12.20;;;3.63;;
68718;SDS011;55696;52.138;5.444;2023-02-02T07:48:35;10.52;;;2.67;;
68718;SDS011;55696;52.138;5.444;2023-02-02T07:51:04;16.65;;;3.40;;
68718;SDS011;55696;52.138;5.444;2023-02-02T07:53:33;10.20;;;2.63;;
68718;SDS011;55696;52.138;5.444;2023-02-02T07:56:05;17.08;;;3.00;;
68718;SDS011;55696;52.138;5.444;2023-02-02T07:58:35;14.18;;;2.97;;
68718;SDS011;55696;52.138;5.444;2023-02-02T08:01:03;16.27;;;3.67;;
68718;SDS011;55696;52.138;5.444;2023-02-02T08:03:31;15.20;;;3.45;;
68718;SDS011;55696;52.138;5.444;2023-02-02T08:05:59;18.23;;;2.83;;
68718;SDS011;55696;52.138;5.444;2023-02-02T08:08:26;10.30;;;2.70;;
68718;SDS011;55696;52.138;5.444;2023-02-02T08:10:53;15.38;;;3.70;;
68718;SDS011;55696;52.138;5.444;2023-02-02T08:13:20;18.58;;;2.85;;
68718;SDS011;55696;52.138;5.444;2023-02-02T08:15:47;14.88;;;3.72;;
68718;SDS011;55696;52.138;5.444;2023-02-02T08:18:13;17.33;;;3.30;;
68718;SDS011;55696;52.138;5.444;2023-02-02T08:20:40;19.92;;;2.65;;
68718;SDS011;55696;52.138;5.444;2023-02-02T08:23:07;15.50;;;2.17;;
68718;SDS011;55696;52.138;5.444;2023-02-02T08:25:41;18.30;;;3.08;;
68718;SDS011;55696;52.138;5.444;2023-02-02T08:28:08;11.38;;;2.35;;
68718;SDS011;55696;52.138;5.444;2023-02-02T08:30:35;14.00;;;2.53;;
68718;SDS011;55696;52.138;5.444;2023-02-02T08:33:01;17.55;;;3.00;;
68718;SDS011;55696;52.138;5.444;2023-02-02T08:35:28;15.60;;;3.15;;
68718;SDS011;55696;52.138;5.444;2023-02-02T08:37:55;17.27;;;2.83;;
68718;SDS011;55696;52.138;5.444;2023-02-02T08:40:22;17.40;;;3.58;;
68718;SDS011;55696;52.138;5.444;2023-02-02T08:42:53;19.30;;;3.30;;
68718;SDS011;55696;52.138;5.444;2023-02-02T08:45:20;14.63;;;2.78;;
68718;SDS011;55696;52.138;5.444;2023-02-02T08:48:07;13.68;;;3.10;;
68718;SDS011;55696;52.138;5.444;2023-02-02T08:50:37;11.95;;;2.60;;
68718;SDS011;55696;52.138;5.444;2023-02-02T08:53:04;13.35;;;2.13;;
68718;SDS011;55696;52.138;5.444;2023-02-02T08:55:31;15.70;;;2.90;;
68718;SDS011;55696;52.138;5.444;2023-02-02T08:57:57;11.75;;;2.80;;
68718;SDS011;55696;52.138;5.444;2023-02-02T09:00:24;15.23;;;3.70;;
68718;SDS011;55696;52.138;5.444;2023-02-02T09:02:51;9.45;;;2.42;;
68718;SDS011;55696;52.138;5.444;2023-02-02T09:05:18;13.95;;;2.55;;
68718;SDS011;55696;52.138;5.444;2023-02-02T09:07:45;18.43;;;2.77;;
68718;SDS011;55696;52.138;5.444;2023-02-02T09:10:12;11.52;;;2.60;;
68718;SDS011;55696;52.138;5.444;2023-02-02T09:12:39;8.48;;;2.42;;
68718;SDS011;55696;52.138;5.444;2023-02-02T09:15:07;14.63;;;2.60;;
68718;SDS011;55696;52.138;5.444;2023-02-02T09:17:34;12.70;;;2.00;;
68718;SDS011;55696;52.138;5.444;2023-02-02T09:20:01;13.63;;;2.80;;
68718;SDS011;55696;52.138;5.444;2023-02-02T09:22:27;12.63;;;2.90;;
68718;SDS011;55696;52.138;5.444;2023-02-02T09:24:54;21.35;;;3.10;;
68718;SDS011;55696;52.138;5.444;2023-02-02T09:27:21;13.07;;;2.20;;
68718;SDS011;55696;52.138;5.444;2023-02-02T09:29:48;16.25;;;2.65;;
68718;SDS011;55696;52.138;5.444;2023-02-02T09:32:14;8.90;;;2.87;;
68718;SDS011;55696;52.138;5.444;2023-02-02T09:34:41;14.20;;;2.67;;
68718;SDS011;55696;52.138;5.444;2023-02-02T09:37:08;21.65;;;2.65;;
68718;SDS011;55696;52.138;5.444;2023-02-02T09:39:35;18.83;;;3.05;;
68718;SDS011;55696;52.138;5.444;2023-02-02T09:44:59;15.30;;;3.03;;
68718;SDS011;55696;52.138;5.444;2023-02-02T09:47:52;14.77;;;2.92;;
68718;SDS011;55696;52.138;5.444;2023-02-02T09:50:52;12.75;;;3.42;;
68718;SDS011;55696;52.138;5.444;2023-02-02T09:56:11;14.93;;;3.17;;
68718;SDS011;55696;52.138;5.444;2023-02-02T09:58:48;10.93;;;2.37;;
68718;SDS011;55696;52.138;5.444;2023-02-02T10:01:22;9.07;;;2.38;;
68718;SDS011;55696;52.138;5.444;2023-02-02T10:06:52;11.10;;;2.50;;
68718;SDS011;55696;52.138;5.444;2023-02-02T10:09:28;17.23;;;3.50;;
68718;SDS011;55696;52.138;5.444;2023-02-02T10:12:17;10.13;;;2.23;;
68718;SDS011;55696;52.138;5.444;2023-02-02T10:18:13;14.35;;;2.58;;
68718;SDS011;55696;52.138;5.444;2023-02-02T10:21:11;20.10;;;2.67;;
68718;SDS011;55696;52.138;5.444;2023-02-02T10:23:45;12.88;;;2.65;;
68718;SDS011;55696;52.138;5.444;2023-02-02T10:29:01;10.25;;;2.42;;
68718;SDS011;55696;52.138;5.444;2023-02-02T10:34:12;17.55;;;3.08;;
68718;SDS011;55696;52.138;5.444;2023-02-02T10:45:03;18.88;;;3.15;;
68718;SDS011;55696;52.138;5.444;2023-02-02T10:47:38;16.35;;;2.78;;
68718;SDS011;55696;52.138;5.444;2023-02-02T10:52:54;9.67;;;2.63;;
68718;SDS011;55696;52.138;5.444;2023-02-02T10:55:32;14.38;;;2.70;;
68718;SDS011;55696;52.138;5.444;2023-02-02T11:00:55;15.65;;;3.80;;
68718;SDS011;55696;52.138;5.444;2023-02-02T11:03:25;16.70;;;3.15;;
68718;SDS011;55696;52.138;5.444;2023-02-02T11:05:54;13.40;;;2.83;;
68718;SDS011;55696;52.138;5.444;2023-02-02T11:08:42;11.38;;;2.55;;
68718;SDS011;55696;52.138;5.444;2023-02-02T11:11:21;17.13;;;2.80;;
68718;SDS011;55696;52.138;5.444;2023-02-02T11:13:54;19.05;;;3.08;;
68718;SDS011;55696;52.138;5.444;2023-02-02T11:16:42;13.73;;;2.97;;
68718;SDS011;55696;52.138;5.444;2023-02-02T11:21:47;8.55;;;2.38;;
68718;SDS011;55696;52.138;5.444;2023-02-02T11:29:44;12.07;;;2.65;;
68718;SDS011;55696;52.138;5.444;2023-02-02T11:35:05;14.20;;;;;
68718;SDS011;55696;52.138;5.444;2023-02-02T11:38:04;12.82;;;2.65;;
68718;SDS011;55696;52.138;5.444;2023-02-02T11:40:36;16.70;;;2.45;;
68718;SDS011;55696;52.138;5.444;2023-02-02T11:43:04;14.82;;;3.05;;
68718;SDS011;55696;52.138;5.444;2023-02-02T11:45:40;15.90;;;2.10;;
68718;SDS011;55696;52.138;5.444;2023-02-02T11:48:13;9.18;;;2.60;;
68718;SDS011;55696;52.138;5.444;2023-02-02T11:50:52;15.82;;;2.25;;
68718;SDS011;55696;52.138;5.444;2023-02-02T11:56:19;16.50;;;2.58;;
68718;SDS011;55696;52.138;5.444;2023-02-02T11:58:49;15.33;;;1.90;;
68718;SDS011;55696;52.138;5.444;2023-02-02T12:03:54;11.07;;;2.22;;
68718;SDS011;55696;52.138;5.444;2023-02-02T12:06:24;10.18;;;1.80;;
68718;SDS011;55696;52.138;5.444;2023-02-02T12:08:54;17.13;;;2.95;;
68718;SDS011;55696;52.138;5.444;2023-02-02T12:17:37;11.48;;;2.78;;
68718;SDS011;55696;52.138;5.444;2023-02-02T12:55:09;9.70;;;2.00;;
68718;SDS011;55696;52.138;5.444;2023-02-02T13:00:47;12.18;;;2.08;;
68718;SDS011;55696;52.138;5.444;2023-02-02T13:12:02;11.98;;;2.15;;
68718;SDS011;55696;52.138;5.444;2023-02-02T13:17:12;14.15;;;2.42;;
68718;SDS011;55696;52.138;5.444;2023-02-02T13:19:44;10.13;;;1.80;;
68718;SDS011;55696;52.138;5.444;2023-02-02T13:22:21;12.82;;;2.65;;
68718;SDS011;55696;52.138;5.444;2023-02-02T13:25:01;9.50;;;1.95;;
68718;SDS011;55696;52.138;5.444;2023-02-02T13:27:33;8.80;;;2.05;;
68718;SDS011;55696;52.138;5.444;2023-02-02T13:30:04;14.70;;;2.80;;
68718;SDS011;55696;52.138;5.444;2023-02-02T13:32:41;6.20;;;2.40;;
68718;SDS011;55696;52.138;5.444;2023-02-02T13:35:18;12.30;;;2.63;;
68718;SDS011;55696;52.138;5.444;2023-02-02T13:40:38;21.48;;;2.75;;
68718;SDS011;55696;52.138;5.444;2023-02-02T13:57:23;14.60;;;1.90;;
68718;SDS011;55696;52.138;5.444;2023-02-02T14:05:25;7.88;;;2.15;;
68718;SDS011;55696;52.138;5.444;2023-02-02T14:08:07;7.82;;;1.63;;
68718;SDS011;55696;52.138;5.444;2023-02-02T14:10:54;6.90;;;1.60;;
68718;SDS011;55696;52.138;5.444;2023-02-02T14:19:03;5.30;;;1.73;;
68718;SDS011;55696;52.138;5.444;2023-02-02T14:23:59;4.28;;;1.30;;
68718;SDS011;55696;52.138;5.444;2023-02-02T14:34:54;4.70;;;1.25;;
68718;SDS011;55696;52.138;5.444;2023-02-02T14:37:56;4.07;;;1.60;;
68718;SDS011;55696;52.138;5.444;2023-02-02T14:40:55;3.73;;;1.33;;
68718;SDS011;55696;52.138;5.444;2023-02-02T14:44:08;2.40;;;1.10;;
68718;SDS011;55696;52.138;5.444;2023-02-02T14:46:36;2.83;;;1.25;;
68718;SDS011;55696;52.138;5.444;2023-02-02T14:49:06;2.30;;;1.30;;
68718;SDS011;55696;52.138;5.444;2023-02-02T14:51:45;2.17;;;1.30;;
68718;SDS011;55696;52.138;5.444;2023-02-02T14:54:26;4.47;;;0.90;;
68718;SDS011;55696;52.138;5.444;2023-02-02T14:56:57;4.03;;;1.20;;
68718;SDS011;55696;52.138;5.444;2023-02-02T14:59:34;4.65;;;1.42;;
68718;SDS011;55696;52.138;5.444;2023-02-02T15:02:13;2.65;;;1.25;;
68718;SDS011;55696;52.138;5.444;2023-02-02T15:08:24;2.83;;;1.30;;
68718;SDS011;55696;52.138;5.444;2023-02-02T15:10:56;2.58;;;1.40;;
68718;SDS011;55696;52.138;5.444;2023-02-02T15:13:24;4.40;;;1.77;;
68718;SDS011;55696;52.138;5.444;2023-02-02T15:16:05;4.15;;;1.75;;
68718;SDS011;55696;52.138;5.444;2023-02-02T15:18:40;3.72;;;1.55;;
68718;SDS011;55696;52.138;5.444;2023-02-02T15:21:13;3.13;;;1.70;;
68718;SDS011;55696;52.138;5.444;2023-02-02T15:23:43;6.20;;;2.00;;
68718;SDS011;55696;52.138;5.444;2023-02-02T15:31:34;4.10;;;2.40;;
68718;SDS011;55696;52.138;5.444;2023-02-02T15:34:29;6.77;;;2.83;;
68718;SDS011;55696;52.138;5.444;2023-02-02T15:37:23;10.82;;;2.90;;
68718;SDS011;55696;52.138;5.444;2023-02-02T15:39:55;8.45;;;3.30;;
68718;SDS011;55696;52.138;5.444;2023-02-02T15:46:01;5.60;;;2.97;;
68718;SDS011;55696;52.138;5.444;2023-02-02T15:48:27;16.53;;;3.23;;
68718;SDS011;55696;52.138;5.444;2023-02-02T15:50:59;10.95;;;3.90;;
68718;SDS011;55696;52.138;5.444;2023-02-02T15:53:33;9.32;;;3.17;;
68718;SDS011;55696;52.138;5.444;2023-02-02T15:56:31;11.57;;;4.00;;
68718;SDS011;55696;52.138;5.444;2023-02-02T15:58:59;10.43;;;3.58;;
68718;SDS011;55696;52.138;5.444;2023-02-02T16:01:28;9.40;;;2.83;;
68718;SDS011;55696;52.138;5.444;2023-02-02T16:06:40;8.77;;;3.40;;
68718;SDS011;55696;52.138;5.444;2023-02-02T16:09:09;8.30;;;3.17;;
68718;SDS011;55696;52.138;5.444;2023-02-02T16:11:47;7.50;;;2.40;;
68718;SDS011;55696;52.138;5.444;2023-02-02T16:14:15;7.27;;;3.13;;
68718;SDS011;55696;52.138;5.444;2023-02-02T16:16:45;6.63;;;2.25;;
68718;SDS011;55696;52.138;5.444;2023-02-02T16:19:18;9.40;;;3.33;;
68718;SDS011;55696;52.138;5.444;2023-02-02T16:21:54;12.45;;;3.10;;
68718;SDS011;55696;52.138;5.444;2023-02-02T16:24:30;14.93;;;3.42;;
68718;SDS011;55696;52.138;5.444;2023-02-02T16:27:01;9.07;;;3.27;;
68718;SDS011;55696;52.138;5.444;2023-02-02T16:29:30;14.82;;;3.67;;
68718;SDS011;55696;52.138;5.444;2023-02-02T16:31:59;10.13;;;3.78;;
68718;SDS011;55696;52.138;5.444;2023-02-02T16:37:12;14.95;;;3.88;;
68718;SDS011;55696;52.138;5.444;2023-02-02T16:39:47;12.07;;;3.83;;
68718;SDS011;55696;52.138;5.444;2023-02-02T16:42:24;13.07;;;4.25;;
68718;SDS011;55696;52.138;5.444;2023-02-02T16:44:57;10.93;;;4.65;;
68718;SDS011;55696;52.138;5.444;2023-02-02T16:50:34;17.55;;;4.60;;
68718;SDS011;55696;52.138;5.444;2023-02-02T16:52:59;13.20;;;4.17;;
68718;SDS011;55696;52.138;5.444;2023-02-02T16:55:28;14.60;;;4.53;;
68718;SDS011;55696;52.138;5.444;2023-02-02T16:58:15;13.32;;;4.30;;
68718;SDS011;55696;52.138;5.444;2023-02-02T17:00:56;14.25;;;4.30;;
68718;SDS011;55696;52.138;5.444;2023-02-02T17:03:47;17.70;;;4.80;;
68718;SDS011;55696;52.138;5.444;2023-02-02T17:06:24;16.20;;;4.60;;
68718;SDS011;55696;52.138;5.444;2023-02-02T17:09:25;12.90;;;4.18;;
68718;SDS011;55696;52.138;5.444;2023-02-02T17:11:59;15.70;;;4.10;;
68718;SDS011;55696;52.138;5.444;2023-02-02T17:14:47;18.83;;;4.50;;
68718;SDS011;55696;52.138;5.444;2023-02-02T17:17:19;20.38;;;5.00;;
68718;SDS011;55696;52.138;5.444;2023-02-02T17:19:46;10.43;;;3.97;;
68718;SDS011;55696;52.138;5.444;2023-02-02T17:22:14;10.93;;;3.90;;
68718;SDS011;55696;52.138;5.444;2023-02-02T17:24:43;15.68;;;4.68;;
68718;SDS011;55696;52.138;5.444;2023-02-02T17:27:12;13.43;;;4.40;;
68718;SDS011;55696;52.138;5.444;2023-02-02T17:29:43;14.27;;;4.90;;
68718;SDS011;55696;52.138;5.444;2023-02-02T17:32:13;15.70;;;4.13;;
68718;SDS011;55696;52.138;5.444;2023-02-02T17:34:40;14.60;;;4.28;;
68718;SDS011;55696;52.138;5.444;2023-02-02T17:37:07;15.20;;;4.47;;
68718;SDS011;55696;52.138;5.444;2023-02-02T17:39:34;19.08;;;5.28;;
68718;SDS011;55696;52.138;5.444;2023-02-02T17:42:00;14.85;;;3.78;;
68718;SDS011;55696;52.138;5.444;2023-02-02T17:44:28;16.50;;;4.20;;
68718;SDS011;55696;52.138;5.444;2023-02-02T17:46:55;19.10;;;4.50;;
68718;SDS011;55696;52.138;5.444;2023-02-02T17:49:22;12.18;;;3.72;;
68718;SDS011;55696;52.138;5.444;2023-02-02T17:51:49;12.32;;;4.78;;
68718;SDS011;55696;52.138;5.444;2023-02-02T17:54:16;16.75;;;4.57;;
68718;SDS011;55696;52.138;5.444;2023-02-02T17:56:43;16.13;;;6.03;;
68718;SDS011;55696;52.138;5.444;2023-02-02T17:59:11;16.30;;;4.38;;
68718;SDS011;55696;52.138;5.444;2023-02-02T18:01:38;14.82;;;4.65;;
68718;SDS011;55696;52.138;5.444;2023-02-02T18:04:08;15.52;;;3.83;;
68718;SDS011;55696;52.138;5.444;2023-02-02T18:06:37;12.02;;;4.10;;
68718;SDS011;55696;52.138;5.444;2023-02-02T18:09:05;13.10;;;4.20;;
68718;SDS011;55696;52.138;5.444;2023-02-02T18:11:32;10.38;;;3.58;;
68718;SDS011;55696;52.138;5.444;2023-02-02T18:13:58;16.73;;;4.30;;